METAR Data
IDs: Format: Raw Decoded Include TAF

Data at: 1408 UTC 14 Dec 2019

METAR for:KSHL (Sheldon Muni, IA, US)
Text:KSHL 141355Z AUTO 33013KT 6SM -SN BKN007 OVC010 M11/M12 A2995 RMK AO2
Temperature:-11.0°C ( 12°F)
Dewpoint:-12.0°C ( 10°F) [RH = 92%]
Pressure (altimeter):29.95 inches Hg (1014.3 mb)
Winds:from the NNW (330 degrees) at 15 MPH (13 knots; 6.7 m/s)
Visibility: 6 sm ( 10 km)
Ceiling:700 feet AGL
Clouds: broken clouds at 700 feet AGL, overcast cloud deck at 1000 feet AGL
Weather:-SN (light snow)
QC Flag:automated observation with no human augmentation